Date,TemperatureHighF,TemperatureAvgF,TemperatureLowF,DewpointHighF,DewpointAvgF,DewpointLowF,HumidityHigh,HumidityAvg,HumidityLow,PressureMaxIn,PressureMinIn,WindSpeedMaxMPH,WindSpeedAvgMPH,GustSpeedMaxMPH,PrecipitationSumIn
2013-1-1,76.5,71.9,68.0,69.9,67.0,63.4,94,85,75,30.32,29.47,12,6,23,0.06
2013-1-2,76.1,72.6,70.2,70.0,68.1,65.7,94,86,78,30.31,29.49,9,6,24,0.08
2013-1-3,76.6,72.3,69.1,70.9,67.7,64.6,95,86,74,30.31,29.24,11,8,24,0.13
2013-1-4,78.8,74.0,71.8,69.1,66.6,64.1,85,78,68,30.40,29.59,14,10,30,0.07
2013-1-5,77.7,73.6,70.2,70.2,67.6,65.5,91,82,75,30.40,29.68,12,9,30,0.14
2013-1-6,80.4,75.6,72.7,69.9,67.7,65.6,85,77,67,30.42,29.06,10,8,30,0.01
2013-1-7,80.6,74.9,71.6,70.4,68.0,66.0,85,79,67,30.24,29.36,10,7,24,0.01
2013-1-8,80.8,74.4,69.8,69.9,67.7,66.0,91,80,66,29.99,28.57,14,6,22,0.05
2013-1-9,81.3,75.0,70.7,70.3,68.4,66.5,90,80,66,30.13,28.48,9,6,22,0.04
2013-1-10,82.8,75.9,72.7,68.5,66.6,63.6,83,73,60,30.21,28.52,9,6,21,0.00
2013-1-11,82.9,74.8,70.2,68.8,66.8,55.0,92,77,59,30.26,28.81,8,4,18,0.02
2013-1-12,82.6,73.8,67.1,71.3,68.3,65.3,95,83,64,30.19,28.59,9,2,18,0.04
2013-1-13,84.6,73.4,66.0,76.7,68.2,64.8,96,85,63,30.17,28.28,6,1,17,0.00
2013-1-14,79.0,72.8,67.6,71.0,68.3,65.6,95,86,73,29.92,28.12,8,3,17,0.45
2013-1-15,79.0,71.2,61.0,73.1,63.4,57.7,98,77,65,29.68,28.06,7,2,12,0.02
2013-1-16,84.6,69.7,56.3,66.3,60.4,55.2,97,74,44,29.87,27.18,9,3,18,0.00
2013-1-17,82.2,70.4,62.1,71.1,62.4,59.9,96,77,55,29.83,28.05,6,2,11,0.02
2013-1-18,80.8,71.2,60.4,65.3,60.7,54.9,93,71,47,29.69,27.63,11,4,23,0.01
2013-1-19,78.1,73.2,68.7,60.5,56.6,53.1,66,56,46,29.82,28.43,12,7,24,0.00
2013-1-20,78.3,72.4,68.7,59.8,58.0,55.8,69,61,49,29.53,28.07,11,6,21,0.00
2013-1-21,81.0,73.1,69.3,65.2,61.2,57.5,75,66,53,29.89,28.01,9,5,18,0.00
2013-1-22,81.5,74.6,71.8,68.9,64.1,61.1,78,70,57,30.05,28.29,7,5,17,0.00
2013-1-23,81.1,73.1,69.4,68.8,65.5,58.9,93,77,62,29.65,28.28,8,5,18,0.12
2013-1-24,81.7,71.5,65.5,70.4,67.0,64.3,96,86,65,29.84,28.86,8,3,21,0.21
2013-1-25,85.6,72.9,63.3,71.6,66.2,62.5,98,81,56,29.99,28.74,5,2,11,0.00
2013-1-26,85.5,72.6,61.9,74.1,64.5,60.7,97,77,53,29.85,28.17,7,2,16,0.00
2013-1-27,79.2,73.0,64.4,69.1,66.1,63.4,98,80,65,30.46,28.32,14,3,30,1.69
2013-1-28,78.6,69.4,64.2,70.4,66.6,62.8,98,91,70,29.61,28.60,6,2,14,1.20
2013-1-29,84.6,70.8,63.5,75.6,66.4,62.4,98,87,60,29.95,28.51,6,1,11,0.01
2013-1-30,81.9,71.2,62.2,77.2,65.8,61.5,98,84,61,29.84,28.53,7,2,15,0.00
2013-1-31,81.5,74.3,68.2,68.7,66.9,64.4,93,78,63,29.88,28.43,9,5,17,0.00
2013-2-1,82.0,74.6,70.7,65.8,62.9,58.8,78,67,53,29.78,28.12,8,6,21,0.00
2013-2-2,81.9,74.7,70.9,65.6,63.1,60.1,76,68,52,29.73,28.33,8,6,19,0.00
2013-2-3,80.8,72.9,65.5,62.3,60.6,58.9,86,66,52,29.85,28.75,8,4,17,0.00
2013-2-4,73.6,72.7,71.1,66.2,61.2,60.4,84,67,65,29.66,28.93,11,7,24,0.00
2013-2-5,80.8,74.4,70.5,65.8,62.9,58.7,83,68,54,29.89,28.38,10,7,21,0.00
2013-2-6,79.3,73.2,70.2,69.7,66.4,61.9,84,79,66,29.85,28.56,9,5,14,0.06
2013-2-7,80.6,74.8,72.0,70.3,68.2,66.2,85,80,70,30.14,29.10,9,5,19,0.04
2013-2-8,83.5,76.9,72.0,68.5,67.0,64.4,85,72,58,30.03,29.32,11,4,16,5.24
2013-2-9,82.4,74.7,70.2,68.4,66.0,63.1,85,75,61,29.93,28.92,9,5,19,0.00
2013-2-10,80.4,74.4,71.1,71.1,66.7,63.6,87,77,66,29.86,28.68,10,7,23,0.01
2013-2-11,79.3,73.0,70.2,69.2,65.4,62.2,88,77,68,29.95,28.91,10,7,21,0.06
2013-2-12,77.9,72.4,69.4,65.2,61.4,55.8,81,68,60,29.84,28.43,10,6,19,0.00
2013-2-13,77.9,71.5,68.9,61.8,59.6,55.2,77,66,54,29.69,28.55,9,5,17,0.00
2013-2-14,79.5,73.3,69.6,64.5,61.3,56.9,77,66,56,29.97,28.43,8,6,17,0.00
2013-2-15,71.1,71.1,70.9,63.5,63.1,63.0,77,76,76,29.46,29.18,7,7,18,0.00
2013-2-16,79.2,72.0,71.1,65.0,63.0,60.8,76,74,57,29.89,28.85,14,8,31,0.04
2013-2-17,79.3,73.9,69.1,66.5,63.4,59.5,85,70,57,29.83,28.67,13,10,30,0.02
2013-2-18,80.6,74.0,69.4,65.8,62.5,58.6,85,68,55,30.01,28.56,13,9,34,0.00
2013-2-19,78.3,72.6,67.5,66.4,63.3,58.0,90,73,59,29.76,28.17,12,9,25,0.12
2013-2-20,80.1,74.0,70.5,68.4,65.1,62.1,85,74,62,30.00,28.29,11,8,24,0.01
2013-2-21,77.7,72.6,69.6,70.1,66.6,62.6,91,82,73,29.68,28.59,10,7,24,0.18
2013-2-22,79.2,73.1,70.2,69.2,67.0,65.1,90,81,69,30.08,28.72,11,8,24,0.14
2013-2-23,80.2,73.8,70.3,69.9,66.1,63.7,87,77,64,29.90,28.53,10,7,24,0.05
2013-2-24,79.9,75.2,71.4,67.3,64.3,62.1,75,69,60,29.78,28.74,10,8,24,0.01
2013-2-25,81.0,75.9,72.7,68.1,66.7,65.3,84,74,62,29.50,28.56,14,8,22,0.02
2013-2-26,80.1,74.9,69.6,69.5,67.7,65.1,92,79,65,29.50,27.72,17,8,32,0.17
2013-2-27,80.8,75.7,71.2,68.7,66.8,64.9,91,74,61,29.59,28.40,13,8,21,0.02
2013-2-28,81.3,73.6,71.2,69.3,63.9,61.0,86,72,62,29.60,28.57,11,8,21,5.94
2013-3-1,79.7,74.0,71.1,64.9,61.6,57.5,73,66,50,29.52,28.54,11,8,23,0.00
2013-3-2,74.8,72.2,68.2,64.1,61.2,56.6,81,68,58,29.39,28.11,11,9,24,0.00
2013-3-3,80.2,73.8,70.9,62.7,59.1,54.3,73,61,45,29.46,28.45,12,7,22,0.00
2013-3-4,80.6,73.6,69.3,63.8,59.6,54.3,78,62,49,29.70,28.45,9,6,21,0.00
2013-3-5,81.7,74.1,70.5,64.0,60.5,54.8,76,63,46,29.47,28.62,8,6,17,0.00
2013-3-6,81.3,74.3,70.5,66.3,64.2,62.3,83,71,55,29.65,28.64,8,5,18,0.00
2013-3-7,83.8,73.3,65.3,70.8,65.6,55.0,95,78,56,29.61,28.53,6,2,11,0.05
2013-3-8,86.9,73.2,59.7,71.8,60.7,52.7,98,70,34,29.32,27.66,9,3,18,0.01
2013-3-9,83.5,74.5,68.7,69.7,65.9,63.0,93,75,56,29.19,27.96,9,3,17,0.50
2013-3-10,76.5,68.8,63.9,70.4,66.1,63.0,98,91,76,29.29,28.01,7,1,11,1.41
2013-3-11,82.6,70.4,60.3,73.1,64.1,60.0,99,82,56,29.51,28.15,5,1,11,0.01
2013-3-12,78.3,70.5,62.1,68.1,62.9,58.6,94,78,59,29.53,28.75,6,2,11,0.00
2013-3-13,80.6,69.3,60.1,66.0,61.6,58.6,96,77,53,29.58,28.72,7,1,11,0.00
2013-3-14,81.9,70.5,63.5,69.9,64.1,61.3,95,81,61,29.63,28.81,4,1,9,0.06
2013-3-15,83.7,71.0,59.4,65.8,60.7,57.2,96,73,44,29.56,28.39,7,2,14,0.00
2013-3-16,77.5,70.7,64.8,63.6,58.4,54.2,91,66,48,29.67,28.65,13,5,24,0.00
2013-3-17,79.5,69.0,59.5,62.7,58.8,53.8,94,72,44,29.47,28.56,10,3,21,0.18
2013-3-18,81.5,68.0,57.7,69.4,60.1,57.2,98,78,52,29.60,28.38,6,1,14,0.00
2013-3-19,84.6,70.7,59.5,73.2,61.8,57.8,96,76,46,29.56,28.47,7,2,16,0.00
2013-3-20,88.9,73.5,59.9,70.1,63.5,58.8,97,74,39,29.67,28.37,9,2,17,0.01
2013-3-21,84.2,75.6,64.8,72.0,66.8,61.8,92,75,55,29.82,28.92,8,3,16,0.00
2013-3-22,86.0,75.8,69.3,70.5,68.0,64.3,94,78,51,29.82,29.13,9,4,22,0.22
2013-3-23,79.2,71.3,68.2,71.1,66.9,64.6,95,86,71,29.62,28.94,9,4,17,0.18
2013-3-24,72.1,70.3,68.9,69.6,67.5,65.7,95,91,81,29.56,28.77,7,4,15,0.47
2013-3-25,82.8,74.6,68.4,73.0,69.3,66.5,95,84,66,29.78,28.94,7,2,13,0.02
2013-3-26,84.7,75.6,68.4,77.4,68.4,66.3,94,79,61,29.83,29.11,5,2,11,0.00
2013-3-27,81.0,72.4,69.1,70.8,67.7,65.8,94,85,66,29.69,29.02,11,4,20,0.04
2013-3-28,82.0,74.7,70.0,69.7,66.9,65.0,88,77,63,29.66,28.91,9,5,18,0.05
2013-3-29,81.0,73.9,69.1,68.9,65.8,62.9,89,76,63,29.73,28.71,9,5,22,0.00
2013-3-30,83.3,73.0,67.6,72.4,65.1,59.3,93,77,61,29.74,29.04,11,4,22,0.00
2013-3-31,78.1,71.4,67.5,61.1,55.3,50.4,73,57,46,29.55,28.99,12,7,25,0.00
2013-4-1,70.5,68.4,63.3,58.9,56.0,55.5,78,65,62,29.60,29.17,11,4,17,0.00
2013-4-2,78.1,69.8,58.8,59.9,56.6,52.6,87,64,45,29.79,29.01,9,4,16,0.00
2013-4-3,81.3,72.1,61.2,64.9,62.1,57.1,95,72,54,29.91,29.04,7,3,17,0.02
2013-4-4,84.6,75.3,67.3,70.4,66.0,63.1,93,74,54,29.86,29.18,6,3,14,0.00
2013-4-5,73.6,73.6,73.6,66.3,66.3,66.3,78,78,78,29.52,29.52,3,3,7,0.00
2013-4-6,75.6,73.7,73.6,71.6,66.7,66.3,88,79,78,29.75,29.26,5,3,11,0.00
2013-4-7,84.0,76.9,73.9,72.9,70.8,69.5,89,82,66,29.79,29.07,7,4,16,0.00
2013-4-8,84.2,77.3,73.2,70.8,69.2,67.3,87,76,61,29.57,28.66,8,4,17,0.00
2013-4-9,85.5,77.9,73.4,71.3,68.9,66.9,86,74,58,29.59,28.80,7,5,17,0.00
2013-4-10,82.6,76.1,73.9,71.3,69.8,68.2,88,81,65,29.49,28.68,9,5,21,0.00
2013-4-11,87.3,77.8,68.5,77.0,70.4,66.5,94,79,56,29.58,28.48,8,4,18,0.00
2013-4-12,84.6,76.8,68.2,72.0,69.0,64.5,89,77,56,29.57,28.87,9,3,19,0.00
2013-4-13,89.1,76.8,68.0,71.6,68.4,64.8,92,76,50,29.62,28.69,8,2,17,0.00
2013-4-14,85.3,78.3,70.7,69.4,67.8,66.2,95,72,55,29.44,28.67,7,4,16,0.30
2013-4-15,83.7,74.2,68.2,77.7,70.3,66.7,97,88,68,29.67,28.81,5,1,11,0.12
2013-4-16,88.0,76.4,64.9,79.5,69.6,64.4,98,81,57,29.81,28.84,6,2,11,0.01
2013-4-17,85.1,78.1,73.9,72.8,70.1,67.2,87,77,65,29.91,29.19,8,5,19,0.00
2013-4-18,83.8,77.2,72.9,72.2,69.2,66.5,86,77,62,29.94,29.29,8,6,20,0.00
2013-4-19,80.1,76.1,73.0,72.4,70.1,67.3,91,82,73,29.91,29.29,8,5,21,0.02
2013-4-20,85.6,75.0,68.4,72.2,68.4,66.3,94,81,56,29.78,29.24,6,2,14,0.00
2013-4-21,91.6,76.4,65.8,72.9,67.9,65.0,97,77,46,29.85,28.95,8,2,17,0.00
2013-4-22,76.5,76.0,69.6,69.9,69.7,67.4,94,81,80,29.78,29.52,2,2,5,0.09
2013-4-23,89.1,76.9,72.0,73.9,69.5,66.9,93,79,52,29.88,29.31,8,3,16,0.20
2013-4-24,88.9,75.9,69.6,73.1,70.8,68.3,96,85,56,29.83,29.36,7,3,13,0.72
2013-4-25,86.2,78.9,73.2,71.7,69.5,67.5,91,74,58,29.78,29.24,6,4,15,0.01
2013-4-26,85.3,78.5,74.5,70.4,67.7,63.8,82,70,50,29.91,29.37,8,5,20,0.00
2013-4-27,86.0,77.5,68.9,70.2,66.9,64.7,91,71,50,29.83,29.34,6,3,17,0.00
2013-4-28,91.0,77.6,66.0,74.0,67.1,64.4,96,73,43,29.73,29.06,9,2,18,0.00
2013-4-29,90.7,80.4,72.7,70.8,68.7,66.9,85,69,47,29.74,29.27,6,2,14,0.00
2013-4-30,88.0,78.0,67.8,77.5,70.4,66.1,95,78,57,29.79,29.08,7,2,14,0.00
2013-5-1,76.6,76.1,75.9,71.3,70.6,70.1,84,83,81,29.72,29.47,6,2,14,0.00
2013-5-2,86.4,79.0,74.7,72.2,69.7,65.6,88,74,59,29.83,29.35,9,5,19,0.00
2013-5-3,86.0,78.1,69.6,71.6,68.2,65.1,89,72,57,29.74,29.19,7,3,16,0.06
2013-5-4,90.0,76.1,68.5,79.0,69.6,66.6,96,82,49,29.66,29.05,6,2,13,0.14
2013-5-5,86.9,75.0,70.0,71.7,69.2,67.5,95,83,59,29.58,29.08,8,3,15,0.08
2013-5-6,83.5,75.3,66.6,69.6,65.5,62.7,92,73,51,29.66,29.00,8,3,16,0.00
2013-5-7,87.3,74.5,65.1,73.4,65.5,62.8,95,75,55,29.54,28.73,6,2,12,0.00
2013-5-8,85.6,74.8,65.1,71.1,65.4,62.1,94,74,53,29.71,28.87,5,1,11,0.00
2013-5-9,86.9,75.3,65.8,71.5,68.4,64.2,96,80,57,29.82,29.20,5,2,10,0.04
2013-5-10,84.6,74.8,68.9,73.0,70.1,67.7,97,86,64,29.95,29.44,7,3,16,0.11
2013-5-11,84.2,77.0,73.6,70.4,68.2,66.4,85,75,58,29.87,29.43,10,6,21,0.00
2013-5-12,79.2,74.5,70.7,72.1,69.3,66.3,94,84,74,29.86,29.42,10,6,21,0.30
2013-5-13,81.5,77.3,73.6,72.4,71.0,68.5,93,81,67,29.86,29.50,8,6,23,0.02
2013-5-14,86.2,79.7,74.7,73.6,71.6,69.9,87,77,65,29.95,29.45,10,6,20,0.00
2013-5-15,85.3,78.0,75.9,72.6,71.0,69.8,85,79,61,29.90,29.48,11,5,20,0.00
2013-5-16,85.8,79.2,75.6,72.0,70.0,67.5,85,74,58,29.97,29.37,9,6,20,0.00
2013-5-17,86.9,79.0,75.6,71.4,69.2,67.3,81,72,56,29.84,29.48,8,5,18,0.00
2013-5-18,87.6,80.2,74.7,72.2,69.5,67.6,83,70,57,29.88,29.37,7,4,16,0.00
2013-5-19,85.1,74.1,69.4,74.1,68.9,66.4,93,84,56,29.83,29.27,8,2,16,0.58
2013-5-20,85.5,75.2,66.2,68.8,64.9,62.9,93,72,49,29.65,29.12,5,2,11,0.00
2013-5-21,87.3,75.4,64.4,74.1,66.2,62.5,96,75,45,29.56,28.80,8,2,14,0.00
2013-5-22,90.1,79.6,65.3,75.9,69.5,64.5,97,73,54,29.68,29.02,5,2,11,0.00
2013-5-23,84.6,84.6,84.6,71.1,71.1,71.1,64,64,64,29.60,29.60,4,4,8,0.00
2013-5-24,84.6,84.6,84.6,71.1,71.1,71.1,64,64,64,29.60,29.60,4,4,8,0.00
2013-5-25,84.6,84.6,84.6,71.1,71.1,71.1,64,64,64,29.60,29.60,4,4,8,0.00
2013-5-26,84.6,84.6,84.6,71.1,71.1,71.1,64,64,64,29.60,29.60,4,4,8,0.00
2013-5-27,86.2,79.8,73.6,71.2,69.4,64.4,85,71,57,29.86,28.66,11,6,20,0.01
2013-5-28,87.3,79.9,75.6,73.7,72.1,69.9,91,78,61,29.94,29.36,8,6,19,0.05
2013-5-29,89.2,79.6,72.1,78.5,72.6,69.9,95,80,62,29.85,29.42,6,3,14,0.05
2013-5-30,87.8,80.0,75.0,74.4,72.2,70.2,90,78,62,29.78,29.23,8,4,16,0.07
2013-5-31,85.5,78.9,75.0,75.5,73.0,71.8,94,82,68,29.65,28.98,8,4,20,0.04
2013-6-1,87.1,80.4,76.8,74.8,72.6,69.9,87,77,59,29.56,28.88,9,6,19,0.01
2013-6-2,85.3,79.4,75.0,75.9,72.1,67.1,92,78,65,29.58,28.88,9,6,21,0.03
2013-6-3,86.0,80.5,76.8,72.0,69.4,65.5,81,69,58,29.78,29.20,11,7,21,0.00
2013-6-4,87.4,80.1,77.0,71.4,69.7,68.1,79,71,54,29.72,29.23,9,7,21,0.00
2013-6-5,77.5,77.1,76.5,69.5,69.3,66.6,77,77,69,29.65,29.40,8,6,19,0.02
2013-6-6,86.7,80.0,75.6,70.0,68.3,66.1,78,68,54,29.73,29.22,10,6,21,0.00
2013-6-7,86.0,78.7,75.9,71.5,69.3,66.6,84,73,58,29.77,29.32,9,6,24,0.01
2013-6-8,87.1,80.2,76.3,71.2,69.4,67.4,81,70,55,29.81,29.37,8,6,19,0.00
2013-6-9,87.6,79.9,76.5,72.4,70.4,68.9,82,73,59,29.84,29.35,7,6,17,0.00
2013-6-10,86.4,79.6,75.2,72.0,70.5,68.6,88,74,59,29.88,29.36,8,6,17,0.01
2013-6-11,87.1,79.9,76.6,72.5,70.8,68.9,84,74,59,29.86,29.47,8,5,21,0.00
2013-6-12,87.4,79.5,76.5,73.8,70.8,67.7,84,75,57,29.98,29.49,10,6,24,0.00
2013-6-13,86.5,79.1,75.4,73.6,71.2,68.7,88,77,62,29.97,29.46,9,7,49,0.01
2013-6-14,86.7,79.7,74.7,71.5,70.3,69.0,89,74,59,29.95,29.56,10,7,21,0.02
2013-6-15,86.0,79.7,75.2,72.2,70.1,68.5,85,73,57,29.90,29.52,8,6,19,0.02
2013-6-16,87.3,79.9,75.4,72.0,70.1,68.9,83,72,58,29.94,29.44,10,6,20,0.00
2013-6-17,87.4,80.0,74.8,72.6,70.7,69.0,85,74,58,29.99,29.60,9,6,21,0.00
2013-6-18,87.6,80.2,75.0,73.6,71.3,68.4,86,75,61,30.00,29.59,9,6,24,0.00
2013-6-19,87.8,80.6,76.3,73.1,70.2,68.3,81,71,57,30.06,29.60,7,5,17,0.00
2013-6-20,86.2,77.9,72.3,73.8,70.1,67.5,95,77,61,29.89,29.49,8,5,17,0.18
2013-6-21,88.2,78.7,72.3,74.1,71.4,69.3,95,79,59,29.95,29.55,9,5,22,0.07
2013-6-22,86.0,79.1,75.6,72.4,70.7,66.6,87,76,60,29.95,29.53,10,7,24,0.01
2013-6-23,84.7,78.4,74.5,75.5,71.7,69.5,90,80,64,29.94,29.45,9,6,21,0.06
2013-6-24,85.8,78.4,73.6,72.4,70.4,68.7,88,77,60,29.91,29.39,9,6,21,0.01
2013-6-25,76.8,76.8,76.8,70.2,70.2,70.2,80,80,80,29.74,29.74,6,6,13,0.00
2013-6-26,76.8,76.8,76.8,70.2,70.2,70.2,80,80,80,29.74,29.74,6,6,13,0.00
2013-6-27,86.7,79.2,75.4,72.7,69.7,67.7,87,73,55,29.91,29.40,8,5,16,0.17
2013-6-28,86.7,78.2,74.3,72.8,70.5,69.0,88,77,57,29.73,29.27,8,4,18,0.02
2013-6-29,87.6,79.4,72.7,72.8,70.7,67.6,92,75,55,29.78,29.07,8,4,19,0.06
2013-6-30,88.0,80.9,76.3,72.9,70.7,68.7,87,72,56,29.85,29.33,7,5,17,0.00
2013-7-1,86.9,80.3,75.7,75.4,71.2,68.5,85,74,56,29.76,29.30,9,5,17,0.01
2013-7-2,86.5,79.0,74.5,72.9,70.4,67.7,90,75,55,29.73,29.31,11,5,21,0.04
2013-7-3,87.4,79.8,75.4,72.7,70.5,68.4,87,74,57,29.77,29.14,8,4,17,0.03
2013-7-4,88.0,78.7,70.3,75.5,69.4,66.5,92,74,53,29.80,29.12,7,3,14,0.00
2013-7-5,88.7,78.4,68.4,74.6,69.2,66.3,94,75,53,29.59,28.95,7,2,14,0.00
2013-7-6,87.8,76.6,68.7,76.1,69.9,67.0,95,81,58,29.58,28.86,6,2,12,0.00
2013-7-7,91.2,80.4,69.1,79.8,71.5,67.6,95,76,53,29.70,28.72,5,2,12,0.08
2013-7-8,88.5,81.8,76.8,74.3,72.7,71.0,86,74,59,29.66,29.00,7,4,15,0.00
2013-7-9,88.0,80.9,78.3,74.3,73.2,71.6,86,78,63,29.72,29.19,11,7,21,0.00
2013-7-10,87.3,80.8,75.6,74.5,72.1,69.8,89,75,59,29.91,29.24,11,8,24,0.01
2013-7-11,85.1,79.7,75.0,75.6,71.3,68.6,88,76,64,29.75,29.23,10,7,27,0.08
2013-7-12,84.0,78.7,75.2,73.0,71.2,69.6,88,78,69,29.66,29.21,11,6,20,0.05
2013-7-13,87.3,81.2,76.3,71.7,70.1,68.6,82,70,56,29.74,29.12,8,6,18,0.00
2013-7-14,90.0,82.3,75.7,71.3,69.3,67.5,79,66,51,29.75,29.23,8,5,15,0.00
2013-7-15,87.8,79.9,75.2,72.3,69.9,66.5,83,72,55,29.70,29.17,8,5,19,0.00
2013-7-16,78.1,78.1,78.1,69.2,69.2,69.2,74,74,74,29.47,29.47,4,4,12,0.00
2013-7-17,80.8,78.2,77.9,72.0,69.6,69.2,81,75,72,29.66,29.34,8,5,19,0.00
2013-7-18,87.3,80.3,74.7,73.7,71.6,69.7,91,75,60,29.75,29.27,8,4,17,0.00
2013-7-19,87.8,80.7,73.4,75.1,72.6,70.7,94,77,61,29.79,29.18,8,4,20,0.00
2013-7-20,88.0,81.0,74.8,72.7,71.4,69.6,89,73,57,29.72,29.18,7,5,19,0.05
2013-7-21,89.2,81.2,75.9,72.2,70.4,68.4,87,70,54,29.69,29.02,7,5,17,0.00
2013-7-22,88.0,80.4,75.2,78.7,74.3,70.0,94,82,64,29.65,29.02,6,3,16,0.22
2013-7-23,81.0,79.2,78.6,75.4,74.7,72.9,88,86,80,29.54,29.22,5,4,13,0.01
2013-7-24,88.3,81.4,77.5,74.7,72.5,70.2,86,75,59,29.64,29.09,7,4,16,0.00
2013-7-25,87.8,81.6,76.5,72.6,70.9,69.2,85,71,57,29.62,29.02,7,4,15,0.02
2013-7-26,83.5,81.9,76.8,71.4,70.8,69.0,81,69,66,29.41,28.91,6,5,15,0.00
2013-7-27,83.5,82.1,77.5,73.4,71.3,69.4,85,70,66,29.55,29.20,7,5,17,0.00
2013-7-28,88.0,81.1,74.3,76.1,72.2,69.5,93,75,57,29.75,29.02,9,5,25,0.04
2013-7-29,88.2,80.0,76.6,78.0,75.8,74.1,95,87,66,29.48,28.91,11,5,22,0.10
2013-7-30,84.6,78.9,77.0,75.8,73.9,73.2,90,85,74,29.70,28.90,7,4,15,0.17
2013-7-31,87.3,81.7,77.7,76.9,73.3,69.7,93,76,60,29.74,29.12,11,7,21,0.04
2013-8-1,88.5,80.8,74.7,74.8,71.2,68.5,91,73,55,29.73,29.02,10,6,21,0.05
2013-8-2,88.0,81.1,75.2,73.4,71.9,70.2,88,74,56,29.67,28.82,9,6,19,0.01
2013-8-3,88.0,81.0,76.8,73.2,71.1,68.9,83,72,57,29.70,28.75,8,5,17,0.00
2013-8-4,89.1,81.3,76.1,73.5,71.7,70.2,86,73,56,29.58,28.76,8,5,18,0.01
2013-8-5,80.4,78.6,78.4,73.1,71.3,71.0,83,78,74,29.52,29.12,6,4,16,0.01
2013-8-6,88.7,81.7,77.4,73.0,71.1,69.0,83,71,54,29.64,28.88,8,5,17,0.00
2013-8-7,88.9,81.7,76.8,72.5,70.3,68.2,80,69,53,29.70,28.95,7,5,16,0.00
2013-8-8,89.4,81.6,77.0,72.4,70.6,68.3,79,70,55,29.87,28.98,7,5,16,0.00
2013-8-9,89.1,79.9,72.5,75.2,72.1,68.3,96,78,57,29.68,28.93,9,4,21,0.43
2013-8-10,87.1,77.4,72.1,77.3,74.3,70.6,99,90,67,29.59,28.70,10,5,20,1.32
2013-8-11,87.8,81.0,77.2,76.8,74.4,70.7,94,81,63,29.80,29.00,8,6,17,0.10
2013-8-12,87.6,81.2,77.5,73.4,71.5,68.5,86,73,57,29.80,29.09,8,6,17,0.00
2013-8-13,87.3,80.3,77.4,74.6,71.6,68.7,85,75,63,29.65,28.96,9,6,21,0.00
2013-8-14,87.6,79.6,77.7,72.9,71.2,68.8,83,76,56,29.60,29.00,10,5,17,0.00
2013-8-15,87.3,80.7,77.0,73.9,71.2,69.0,85,73,58,29.67,29.03,10,6,21,0.02
2013-8-16,88.7,81.1,75.4,74.0,72.0,69.3,90,74,60,29.78,28.94,10,6,21,0.01
2013-8-17,88.2,81.7,77.4,72.5,70.0,67.4,79,68,54,29.82,29.10,9,6,19,0.00
2013-8-18,87.4,82.1,77.2,73.6,71.8,69.0,83,72,61,29.68,28.98,8,6,16,0.00
2013-8-19,89.1,81.2,74.7,74.2,70.2,66.9,89,70,52,29.71,28.86,7,4,14,0.00
2013-8-20,90.3,81.0,72.7,78.0,72.6,69.9,92,77,54,29.62,28.95,6,3,14,0.00
2013-8-21,91.0,81.2,72.9,80.7,73.2,71.0,96,78,60,29.70,28.87,8,3,16,0.25
2013-8-22,89.4,82.9,77.7,75.2,73.5,71.7,86,74,60,29.64,28.91,6,3,12,0.00
2013-8-23,89.1,81.2,77.4,74.5,72.3,70.4,86,75,58,29.59,29.05,7,4,17,0.01
2013-8-24,88.7,82.0,77.9,74.6,72.0,69.6,83,72,57,29.71,28.93,8,5,17,0.00
2013-8-25,88.9,82.1,78.1,73.5,71.5,68.5,80,71,58,29.70,28.82,9,6,20,0.00
2013-8-26,88.9,82.2,78.4,73.5,71.3,69.2,80,70,55,29.76,29.10,8,6,20,0.00
2013-8-27,79.0,78.3,77.9,71.2,69.4,68.2,77,74,73,29.52,29.01,8,6,17,0.00
2013-8-28,86.7,80.0,70.7,74.1,70.8,62.4,92,74,47,29.49,28.78,8,3,14,0.00
2013-8-29,89.4,81.0,72.3,77.8,72.4,69.9,95,76,57,29.62,28.54,8,3,16,0.07
2013-8-30,89.4,82.2,77.7,73.8,72.2,69.3,83,72,55,29.55,28.77,7,4,17,0.00
2013-8-31,89.1,81.7,77.2,73.9,72.0,69.9,84,73,55,29.59,28.83,8,5,19,0.00
2013-9-1,88.3,81.2,73.9,73.4,70.6,65.9,91,71,56,29.71,28.90,9,6,20,0.05
2013-9-2,87.4,81.5,77.0,73.2,70.7,68.1,84,70,58,29.68,29.03,9,6,20,0.01
2013-9-3,79.2,78.7,77.5,72.2,69.8,69.5,83,74,73,29.53,29.16,6,4,11,0.00
2013-9-4,88.5,80.6,71.8,77.6,71.4,68.8,96,75,55,29.58,28.93,7,3,14,0.04
2013-9-5,90.1,81.9,69.6,74.5,70.5,66.5,92,69,52,29.69,29.10,6,3,13,0.00
2013-9-6,79.5,79.0,78.8,73.1,71.6,69.8,82,78,74,29.65,29.37,4,2,8,0.00
2013-9-7,89.4,80.7,73.2,79.1,74.3,70.4,97,82,64,29.70,29.17,8,4,18,0.40
2013-9-8,89.2,82.4,78.6,75.8,73.7,72.3,86,75,62,29.87,29.25,7,5,17,0.02
2013-9-9,89.2,81.9,76.3,74.4,72.0,69.4,90,73,57,29.87,29.26,8,5,20,0.05
2013-9-10,89.1,81.8,77.5,74.6,72.6,70.4,83,74,60,29.81,29.18,8,5,15,0.00
2013-9-11,88.3,81.3,75.0,75.5,73.7,70.8,94,78,63,29.78,29.34,8,4,16,0.07
2013-9-12,88.9,76.9,73.0,76.7,73.6,71.1,96,90,66,29.77,29.25,8,2,14,0.03
2013-9-13,88.5,80.6,75.2,77.3,74.4,72.6,96,82,62,29.73,29.25,9,4,16,0.21
2013-9-14,89.6,81.8,75.6,76.0,73.9,71.1,89,77,62,29.83,29.27,8,4,14,0.02
2013-9-15,80.1,78.4,78.1,74.6,74.5,72.4,88,88,78,29.74,29.44,8,2,14,0.03
2013-9-16,88.0,79.5,73.0,75.3,71.8,67.8,93,78,54,29.81,28.98,9,3,18,0.15
2013-9-17,88.7,80.7,74.8,75.2,73.4,70.8,94,79,62,29.83,29.26,9,6,23,0.13
2013-9-18,88.5,81.9,78.1,74.7,73.1,71.2,86,75,61,29.70,29.22,8,5,20,0.00
2013-9-19,88.7,82.1,78.4,74.4,72.2,70.5,83,72,59,29.85,29.29,8,5,17,0.00
2013-9-20,79.2,79.0,79.0,71.2,71.2,71.2,77,77,77,29.63,29.47,5,5,14,0.00
2013-9-21,88.0,80.3,77.0,73.3,71.5,69.5,83,75,56,29.77,29.32,13,6,20,0.01
2013-9-22,88.3,80.8,77.7,73.4,71.5,69.1,83,74,57,29.78,29.25,8,5,16,0.00
2013-9-23,89.1,81.0,77.0,75.9,72.7,69.9,88,76,61,29.78,29.21,8,4,17,0.11
2013-9-24,86.2,80.0,76.8,76.4,72.6,70.6,87,78,65,29.83,29.22,9,5,22,0.06
2013-9-25,87.3,80.4,75.9,76.2,72.6,69.7,88,77,63,29.78,29.30,8,5,18,0.13
2013-9-26,88.2,81.1,74.1,73.7,71.8,69.7,92,74,57,29.67,29.24,7,4,17,0.01
2013-9-27,88.5,81.3,78.4,73.8,71.8,69.5,81,73,60,29.77,29.15,8,5,18,0.00
2013-9-28,88.2,81.0,76.8,73.8,72.2,70.2,87,75,60,29.79,29.24,10,7,20,0.02
2013-9-29,86.2,79.4,78.3,73.2,72.2,70.3,83,79,62,29.53,29.11,10,4,14,0.00
2013-9-30,88.3,81.6,77.9,74.2,72.4,69.8,84,74,60,29.65,29.08,7,2,17,0.00
2013-10-1,88.9,81.6,78.3,74.3,72.9,70.8,83,75,62,29.71,29.07,6,2,16,0.00
2013-10-2,88.7,81.7,78.4,74.1,72.3,70.8,82,74,59,29.67,28.99,6,1,15,0.00
2013-10-3,79.3,79.2,78.8,72.1,72.1,70.4,79,79,76,29.47,29.05,6,0,16,0.00
2013-10-4,87.6,81.0,77.5,75.6,72.2,70.4,84,75,58,29.68,29.00,6,2,17,0.00
2013-10-5,86.5,79.7,74.5,74.3,71.5,68.0,88,76,61,29.68,28.96,8,1,21,0.04
2013-10-6,87.8,79.7,77.0,75.2,72.3,69.9,85,78,62,29.62,28.93,6,0,17,0.04
2013-10-7,88.7,81.3,77.0,74.1,72.6,70.9,86,75,58,29.70,29.21,0,0,0,0.00
2013-10-8,86.4,80.1,76.5,74.1,72.1,69.8,87,77,61,29.74,29.17,0,0,0,0.01
2013-10-9,87.8,80.9,77.9,73.5,71.6,69.3,83,74,61,29.70,29.06,0,0,0,0.00
2013-10-10,88.3,81.2,76.6,73.6,71.9,69.2,85,74,57,29.68,28.98,0,0,0,0.00
2013-10-11,90.9,80.7,74.7,77.1,74.4,72.5,98,82,62,29.66,29.04,0,0,0,0.72
2013-10-12,89.1,79.5,71.4,79.9,74.3,70.7,99,85,63,29.63,29.09,0,0,0,0.01
2013-10-13,88.9,77.7,71.8,81.8,73.4,70.2,98,87,61,29.69,29.14,0,0,3,0.12
2013-10-14,88.9,78.7,71.1,82.4,72.7,69.8,98,83,63,29.59,28.97,0,0,0,0.00
2013-10-15,88.7,79.5,71.4,81.5,72.4,70.1,97,80,61,29.66,29.04,0,0,0,0.00
2013-10-16,88.0,79.7,72.1,75.1,71.7,69.6,95,77,58,29.58,28.98,0,0,0,0.00
2013-10-17,89.2,79.9,72.7,78.2,72.3,70.2,94,79,57,29.57,28.98,0,0,0,0.00
2013-10-18,88.0,76.8,69.1,80.1,71.0,67.3,96,83,62,29.58,28.77,0,0,0,0.00
2013-10-19,90.0,75.5,66.4,75.8,69.4,65.5,98,83,52,29.51,28.73,0,0,0,0.00
2013-10-20,71.1,71.1,71.1,68.7,68.7,68.7,92,92,92,29.11,29.11,0,0,0,0.00
2013-10-21,86.4,72.7,66.2,75.8,67.0,65.2,97,84,53,29.55,28.81,1,0,3,0.00
2013-10-22,87.8,75.4,68.5,74.5,70.5,66.8,96,85,60,29.63,28.89,7,2,11,0.00
2013-10-23,79.3,77.4,70.9,72.7,71.1,68.5,93,81,74,29.67,29.13,4,2,8,0.00
2013-10-24,86.4,78.3,72.9,72.7,71.3,70.1,93,79,62,29.81,29.22,7,2,12,0.00
2013-10-25,88.2,80.6,72.7,74.1,72.6,69.2,92,77,57,29.62,29.14,7,3,11,0.00
2013-10-26,90.3,81.9,72.1,83.6,74.1,69.7,95,78,61,29.70,29.17,6,2,13,0.00
2013-10-27,94.1,78.7,71.1,82.1,73.3,69.3,96,85,54,30.26,29.05,4,1,11,0.00
2013-10-28,88.3,79.1,71.8,85.4,73.6,70.6,98,84,64,29.78,29.25,6,2,12,0.00
2013-10-29,88.2,81.0,78.1,73.5,71.5,69.0,82,73,56,29.79,29.27,6,4,14,0.00
2013-10-30,88.2,81.1,77.0,73.8,71.7,68.5,85,73,57,29.85,29.25,6,3,12,0.02
2013-10-31,88.7,81.9,76.1,76.3,72.8,71.2,89,74,60,29.79,29.32,7,4,15,0.01
2013-11-1,84.6,79.3,75.7,74.2,71.9,69.0,92,78,65,29.70,29.23,8,6,19,0.06
2013-11-2,87.8,80.2,75.2,73.3,70.8,68.1,87,74,57,29.80,29.23,10,6,21,0.01
2013-11-3,86.4,80.2,77.2,72.2,70.0,68.0,83,71,57,29.76,29.27,9,6,20,0.00
2013-11-4,86.9,79.9,76.5,72.4,70.5,68.5,82,73,57,29.75,29.13,7,4,14,0.00
2013-11-5,88.2,78.9,72.5,75.5,72.1,67.9,93,80,63,29.65,29.13,6,3,17,0.09
2013-11-6,89.6,76.7,71.6,78.6,71.6,69.7,96,85,57,29.61,29.01,8,2,12,0.06
2013-11-7,72.5,69.7,69.6,70.1,68.5,68.2,96,96,92,29.16,29.00,2,0,3,0.00
2013-11-8,87.6,77.9,69.6,78.0,72.5,68.5,96,84,63,29.56,28.95,8,2,18,0.17
2013-11-9,84.0,76.1,71.1,74.5,72.4,69.9,98,88,73,29.47,28.86,12,4,24,1.51
2013-11-10,80.2,75.2,71.2,72.0,68.7,62.1,97,81,62,29.52,28.82,12,8,24,0.78
2013-11-11,82.6,74.0,66.4,69.4,64.6,59.1,94,73,52,29.46,28.81,10,4,21,0.12
2013-11-12,82.6,73.3,63.5,74.1,63.8,60.1,97,74,51,29.49,28.60,10,3,18,0.00
2013-11-13,86.2,74.1,64.0,75.1,65.3,61.4,97,76,49,29.62,28.88,4,1,10,0.02
2013-11-14,83.8,75.3,71.2,72.9,70.4,66.9,95,85,67,29.73,29.03,4,2,8,0.14
2013-11-15,87.3,77.1,72.3,78.4,73.7,70.8,98,90,70,29.65,29.08,5,1,17,0.46
2013-11-16,86.5,80.0,77.0,74.7,72.8,70.7,91,79,63,29.77,29.14,6,4,16,0.00
2013-11-17,87.6,79.2,73.0,79.1,72.9,70.3,94,81,64,29.64,29.16,4,2,11,0.04
2013-11-18,89.4,77.8,68.4,77.6,71.5,67.2,97,82,62,29.67,29.03,6,2,14,0.00
2013-11-19,87.6,72.9,66.9,80.4,68.8,66.4,99,88,60,29.69,28.95,5,1,11,0.00
2013-11-20,88.2,75.8,69.1,81.6,71.3,67.8,98,87,61,29.70,29.16,3,1,7,0.00
2013-11-21,88.2,77.9,69.6,74.5,71.0,67.9,96,81,59,29.71,29.15,4,1,12,0.00
2013-11-22,87.4,76.6,68.0,80.6,70.0,67.1,98,81,64,29.62,29.16,8,3,14,0.00
2013-11-23,81.5,76.4,69.6,68.8,64.4,58.8,89,67,54,29.62,29.17,10,4,13,0.00
2013-11-24,84.6,75.7,61.9,66.9,64.8,55.9,89,69,48,29.70,28.96,8,5,16,0.00
2013-11-25,84.6,78.1,74.8,68.1,66.4,64.1,76,68,53,29.66,29.10,8,5,17,0.00
2013-11-26,85.3,78.8,75.6,71.3,69.2,66.0,82,73,58,29.79,29.22,8,5,17,0.00
2013-11-27,77.7,77.3,76.6,71.3,70.7,68.8,83,80,76,29.66,29.28,5,5,12,0.00
2013-11-28,88.9,79.8,73.0,74.7,71.1,66.7,90,76,55,29.68,29.13,7,3,14,0.02
2013-11-29,85.3,77.8,71.6,76.0,71.1,66.4,95,81,57,29.59,29.05,6,2,16,0.15
2013-11-30,83.7,79.1,73.9,72.8,70.1,66.1,92,74,61,29.70,29.15,6,3,19,0.26
2013-12-1,79.5,73.8,69.8,74.9,70.0,67.7,96,88,70,29.62,29.06,9,2,22,0.81
2013-12-2,69.8,69.8,69.8,68.6,68.6,68.6,96,96,96,29.33,29.33,0,0,2,0.00
2013-12-3,69.8,69.8,69.8,68.6,68.6,68.6,96,96,96,29.33,29.33,0,0,2,0.00
2013-12-4,88.0,79.1,72.1,75.3,70.2,65.6,92,75,54,29.98,29.29,8,2,10,7.88
2013-12-5,87.6,75.0,64.8,78.3,68.6,63.9,97,82,53,30.06,29.50,5,1,9,0.00
2013-12-6,87.3,76.1,66.9,81.8,70.0,66.3,98,82,62,30.05,29.59,6,3,14,0.00
2013-12-7,87.8,77.2,68.2,75.8,69.9,66.4,95,79,56,30.09,29.59,5,2,13,0.00
2013-12-8,89.4,77.1,66.6,80.1,71.1,66.0,98,83,59,30.10,29.42,5,1,13,0.00
2013-12-9,86.9,78.7,70.9,77.0,73.9,69.4,97,86,68,30.20,29.66,5,2,11,0.00
2013-12-10,85.5,79.0,75.7,75.0,72.3,70.1,94,80,64,30.16,29.81,8,5,16,0.02
2013-12-11,84.0,78.2,75.4,73.9,70.8,66.9,91,78,61,30.20,29.79,8,5,18,0.00
2013-12-12,89.4,77.7,73.0,73.1,70.8,67.7,88,80,54,30.18,29.79,7,4,15,0.01
2013-12-13,86.7,79.1,73.6,74.6,71.0,68.5,88,77,58,30.17,29.80,7,3,15,0.00
2013-12-14,85.5,78.0,69.1,71.5,69.3,67.0,93,75,56,30.12,29.70,5,2,12,0.00
2013-12-15,77.5,70.1,65.1,74.1,68.0,64.6,98,93,78,29.99,29.53,13,1,24,0.64
2013-12-16,83.3,73.2,64.9,74.5,67.3,64.6,99,83,61,30.07,29.35,7,2,14,0.01
2013-12-17,86.0,74.3,65.3,76.3,67.1,64.7,99,80,55,30.19,29.49,6,2,12,0.09
2013-12-18,83.7,74.5,67.3,72.3,68.9,66.2,98,83,66,30.13,29.67,8,3,21,0.15
2013-12-19,84.4,76.7,70.5,73.4,70.2,66.5,94,81,61,30.12,29.64,8,4,21,0.33
2013-12-20,84.0,78.0,71.8,72.9,70.9,67.6,89,79,66,30.23,29.79,6,4,14,0.00
2013-12-21,85.1,77.9,70.9,72.6,70.9,68.8,94,80,64,30.20,29.78,6,3,13,0.00
2013-12-22,86.2,75.6,67.6,78.3,69.9,66.8,98,84,59,30.14,29.67,6,2,12,0.01
2013-12-23,83.7,77.4,71.8,72.0,70.5,68.8,95,80,66,30.18,29.66,8,5,20,0.00
2013-12-24,83.5,77.1,74.3,71.8,70.0,67.7,86,79,66,30.22,29.80,8,5,17,0.01
2013-12-25,83.7,77.2,74.7,71.2,69.0,66.4,81,76,65,30.25,29.79,8,5,17,0.00
2013-12-26,82.2,76.9,73.6,73.6,68.8,65.9,83,76,63,30.19,29.71,8,5,18,0.01
2013-12-27,82.6,77.3,74.3,70.8,68.4,64.3,85,74,63,30.19,29.69,9,6,18,0.00
2013-12-28,77.2,76.4,73.6,71.3,70.1,67.9,90,81,78,30.15,29.70,7,6,15,0.01
2013-12-29,77.2,77.2,73.8,70.6,70.6,65.3,80,80,75,30.08,29.83,6,6,12,0.01
2013-12-30,77.4,73.9,70.3,67.9,65.6,63.5,88,75,66,30.15,29.70,8,4,14,0.06
2013-12-31,85.5,74.9,69.4,70.1,67.6,65.5,94,79,56,30.15,29.66,6,2,14,0.01
2014-1-1,85.6,75.7,69.1,76.7,69.4,66.0,95,82,64,30.15,29.71,5,1,11,0.00
2014-1-2,86.0,76.3,70.0,72.8,69.6,66.9,93,80,58,30.04,29.53,9,3,23,0.59